Time;durP1;ratioP1;P1;durP2;ratioP2;P2;SDS_P1;SDS_P2;PMS_P1;PMS_P2;Temp;Humidity;BMP_temperature;BMP_pressure;BME280_temperature;BME280_humidity;BME280_pressure;Samples;Min_cycle;Max_cycle;Signal;HPM_P1;HPM_P2
2023/03/29 00:02:03;;;;;;;6.10;3.50;;;5.30;99.90;;;;;;4938075;28;20058;-85
2023/03/29 00:04:28;;;;;;;8.52;3.50;;;4.90;99.90;;;;;;4937499;28;20047;-86
2023/03/29 00:06:54;;;;;;;9.75;3.58;;;4.90;99.90;;;;;;4936169;28;20047;-86
2023/03/29 00:09:21;;;;;;;8.25;3.72;;;5.00;99.90;;;;;;4937345;28;20501;-86
2023/03/29 00:11:47;;;;;;;9.23;3.78;;;5.20;99.90;;;;;;4937034;28;20118;-86
2023/03/29 00:14:16;;;;;;;9.75;3.20;;;4.90;99.90;;;;;;4937994;28;20648;-86
2023/03/29 00:16:54;;;;;;;8.15;3.83;;;5.40;99.90;;;;;;4933136;29;20051;-87
2023/03/29 00:19:34;;;;;;;7.18;3.13;;;4.80;99.90;;;;;;4934378;29;20043;-85
2023/03/29 00:22:00;;;;;;;11.50;3.30;;;4.80;99.90;;;;;;4933831;29;20051;-85
2023/03/29 00:24:26;;;;;;;10.48;3.40;;;4.90;99.90;;;;;;4933338;29;20087;-86
2023/03/29 00:26:52;;;;;;;8.23;3.08;;;5.00;99.90;;;;;;4933894;29;20085;-86
2023/03/29 00:29:18;;;;;;;5.40;3.00;;;4.80;99.90;;;;;;4933867;29;20139;-85
2023/03/29 00:31:50;;;;;;;8.68;3.47;;;4.80;99.90;;;;;;4933132;29;20119;-85
2023/03/29 00:34:15;;;;;;;6.55;3.20;;;4.80;99.90;;;;;;4933621;29;20043;-85
2023/03/29 00:36:42;;;;;;;5.47;3.20;;;4.80;99.90;;;;;;4933437;29;20066;-86
2023/03/29 00:39:08;;;;;;;7.82;2.92;;;4.80;99.90;;;;;;4933384;29;20051;-87
2023/03/29 00:41:34;;;;;;;7.53;2.60;;;4.80;99.90;;;;;;4933389;29;20085;-86
2023/03/29 00:44:02;;;;;;;9.82;3.17;;;5.00;99.90;;;;;;4933917;28;20472;-85
2023/03/29 00:46:29;;;;;;;7.50;3.00;;;4.80;99.90;;;;;;4926936;29;20055;-86
2023/03/29 00:49:03;;;;;;;7.18;2.97;;;4.80;99.90;;;;;;4917559;29;20047;-85
2023/03/29 00:51:33;;;;;;;6.90;3.00;;;4.80;99.90;;;;;;4932557;29;20065;-86
2023/03/29 00:54:02;;;;;;;6.88;2.88;;;4.80;99.90;;;;;;4933205;29;20043;-85
2023/03/29 00:56:34;;;;;;;8.57;3.10;;;4.80;99.90;;;;;;4933291;29;20047;-85
2023/03/29 00:59:04;;;;;;;5.68;2.83;;;5.00;99.90;;;;;;4933595;29;20456;-86
2023/03/29 01:01:49;;;;;;;7.20;3.15;;;4.80;99.90;;;;;;4917566;29;20046;-85
2023/03/29 01:04:24;;;;;;;6.13;2.65;;;4.80;99.90;;;;;;4933310;29;20051;-85
2023/03/29 01:07:20;;;;;;;6.10;3.03;;;4.80;99.90;;;;;;4915705;29;20069;-86
2023/03/29 01:09:57;;;;;;;8.43;3.58;;;4.80;99.90;;;;;;4917364;29;20095;-85
2023/03/29 01:12:28;;;;;;;6.95;2.72;;;4.80;99.90;;;;;;4917330;29;20117;-85
2023/03/29 01:14:58;;;;;;;7.90;3.05;;;4.80;99.90;;;;;;4932006;29;20082;-86
2023/03/29 01:17:25;;;;;;;7.93;3.30;;;4.80;99.90;;;;;;4917476;29;20051;-86
2023/03/29 01:20:01;;;;;;;5.40;2.50;;;4.80;99.90;;;;;;4916723;29;20141;-85
2023/03/29 01:22:37;;;;;;;7.22;2.90;;;5.20;99.90;;;;;;4917479;29;20479;-86
2023/03/29 01:25:03;;;;;;;6.47;3.60;;;4.20;99.90;;;;;;4916747;29;20090;-86
2023/03/29 01:27:49;;;;;;;6.60;3.00;;;4.90;99.90;;;;;;4931921;29;20082;-85
2023/03/29 01:30:26;;;;;;;4.90;3.00;;;4.80;99.90;;;;;;4932497;29;20043;-86
2023/03/29 01:33:03;;;;;;;7.82;2.95;;;4.90;99.90;;;;;;4916684;29;20132;-85
2023/03/29 01:35:41;;;;;;;7.13;3.35;;;4.90;99.90;;;;;;4915361;29;20051;-85
2023/03/29 01:38:14;;;;;;;7.07;2.88;;;4.90;99.90;;;;;;4917547;29;20047;-85
2023/03/29 01:40:41;;;;;;;9.70;3.10;;;4.90;99.90;;;;;;4932684;29;20094;-85
2023/03/29 01:43:30;;;;;;;7.40;3.10;;;4.90;99.90;;;;;;4932364;28;20047;-85
2023/03/29 01:46:03;;;;;;;6.18;2.90;;;4.80;99.90;;;;;;4916590;29;20066;-85
2023/03/29 01:48:31;;;;;;;;;;;4.90;99.90;;;;;;4933380;29;20047;-85
2023/03/29 01:51:07;;;;;;;5.72;2.85;;;4.90;99.90;;;;;;4931799;29;20021;-85
2023/03/29 01:53:45;;;;;;;6.25;3.03;;;4.90;99.90;;;;;;4916790;29;20091;-86
2023/03/29 01:56:16;;;;;;;6.28;3.40;;;4.90;99.90;;;;;;4916619;29;20130;-85
2023/03/29 01:58:47;;;;;;;8.15;3.10;;;5.40;99.90;;;;;;4921478;29;20061;-85
2023/03/29 02:01:17;;;;;;;8.15;2.92;;;5.00;99.90;;;;;;4936382;29;20634;-86
2023/03/29 02:03:48;;;;;;;8.43;3.67;;;5.10;99.90;;;;;;4936350;28;20046;-85
2023/03/29 02:06:19;;;;;;;8.38;3.60;;;5.40;99.90;;;;;;4935318;29;20127;-85
2023/03/29 02:08:46;;;;;;;8.25;3.47;;;5.30;99.90;;;;;;4936486;29;20056;-86
2023/03/29 02:11:12;;;;;;;6.32;3.30;;;4.90;99.90;;;;;;4948943;28;20043;-85
2023/03/29 02:13:38;;;;;;;8.63;3.85;;;5.00;99.90;;;;;;4939861;28;20055;-85
2023/03/29 02:16:11;;;;;;;8.90;4.13;;;5.00;99.90;;;;;;4955022;28;20097;-86
2023/03/29 02:18:39;;;;;;;9.30;4.30;;;5.00;99.90;;;;;;4939750;28;20051;-86
2023/03/29 02:21:06;;;;;;;7.65;4.35;;;5.40;99.90;;;;;;4938272;28;20132;-85
2023/03/29 02:23:39;;;;;;;7.72;4.50;;;4.90;99.90;;;;;;4954987;28;20042;-86
2023/03/29 02:26:07;;;;;;;10.00;4.50;;;5.30;99.90;;;;;;4939791;28;20045;-85
2023/03/29 02:28:34;;;;;;;12.02;4.38;;;4.90;99.90;;;;;;4939655;28;20038;-84
2023/03/29 02:31:03;;;;;;;11.05;4.80;;;4.90;99.90;;;;;;4938389;28;20505;-84
2023/03/29 02:33:40;;;;;;;8.45;5.07;;;4.90;99.90;;;;;;4955090;28;20519;-85
2023/03/29 02:36:13;;;;;;;10.18;4.72;;;4.90;99.90;;;;;;4937879;28;20061;-85
2023/03/29 02:38:40;;;;;;;8.70;5.03;;;5.20;99.90;;;;;;4937526;28;20053;-85
2023/03/29 02:41:07;;;;;;;8.00;4.40;;;4.90;99.90;;;;;;4955136;28;20053;-85
2023/03/29 02:43:34;;;;;;;8.80;5.22;;;4.90;99.90;;;;;;4954600;28;20051;-84
2023/03/29 02:46:01;;;;;;;7.93;4.43;;;4.90;99.90;;;;;;4949152;28;20117;-85
2023/03/29 02:48:28;;;;;;;9.63;5.10;;;4.90;99.90;;;;;;4919532;29;20055;-86
2023/03/29 02:50:57;;;;;;;10.93;5.28;;;4.90;99.90;;;;;;4918998;29;20593;-85
2023/03/29 02:53:29;;;;;;;10.10;4.72;;;5.30;99.90;;;;;;4918972;29;20082;-85
2023/03/29 02:55:55;;;;;;;8.30;4.67;;;4.90;99.90;;;;;;4935178;29;20158;-85
2023/03/29 02:58:27;;;;;;;7.35;4.35;;;5.40;99.90;;;;;;4919327;29;20538;-85
2023/03/29 03:00:55;;;;;;;11.80;5.30;;;5.30;99.90;;;;;;4935358;29;20047;-85
2023/03/29 03:03:21;;;;;;;10.30;4.90;;;4.80;99.90;;;;;;4919337;29;20286;-86
2023/03/29 03:05:48;;;;;;;8.32;5.25;;;5.40;99.90;;;;;;4933768;29;20530;-85
2023/03/29 03:08:14;;;;;;;9.00;4.85;;;4.90;99.90;;;;;;4918010;29;20487;-85
2023/03/29 03:10:40;;;;;;;9.25;5.18;;;5.00;99.90;;;;;;4919366;29;20475;-85
2023/03/29 03:13:06;;;;;;;7.95;4.47;;;5.10;99.90;;;;;;4935055;29;20077;-86
2023/03/29 03:15:34;;;;;;;10.05;5.05;;;4.90;99.90;;;;;;4934854;29;20367;-86
2023/03/29 03:18:02;;;;;;;9.32;4.82;;;5.20;99.90;;;;;;4935279;29;20491;-85
2023/03/29 03:20:28;;;;;;;11.93;5.43;;;4.90;99.90;;;;;;4918316;29;20082;-85
2023/03/29 03:22:56;;;;;;;9.38;5.32;;;4.90;99.90;;;;;;4935185;28;20431;-86
2023/03/29 03:25:22;;;;;;;9.73;5.47;;;4.90;99.90;;;;;;4918358;29;20118;-86
2023/03/29 03:27:49;;;;;;;9.68;5.35;;;4.90;99.90;;;;;;4918603;29;20039;-84
2023/03/29 03:30:15;;;;;;;10.40;5.50;;;5.40;99.90;;;;;;4934727;29;20039;-85
2023/03/29 03:32:43;;;;;;;10.40;5.32;;;4.90;99.90;;;;;;4918563;29;20472;-84
2023/03/29 03:35:10;;;;;;;14.50;5.60;;;5.20;99.90;;;;;;4933239;29;20858;-85
2023/03/29 03:37:38;;;;;;;9.43;5.15;;;4.90;99.90;;;;;;4919148;29;20398;-86
2023/03/29 03:40:05;;;;;;;10.88;5.22;;;4.90;99.90;;;;;;4919062;29;20089;-85
2023/03/29 03:42:31;;;;;;;8.35;4.95;;;4.90;99.90;;;;;;4934564;29;20138;-85
2023/03/29 03:44:57;;;;;;;8.90;5.38;;;4.90;99.90;;;;;;4935067;29;20058;-85
2023/03/29 03:47:23;;;;;;;14.32;5.80;;;5.10;99.90;;;;;;4919244;29;20047;-85
2023/03/29 03:49:50;;;;;;;8.73;5.30;;;5.10;99.90;;;;;;4934012;29;20466;-85
2023/03/29 03:52:16;;;;;;;12.77;6.05;;;5.00;99.90;;;;;;4934416;29;20058;-85
2023/03/29 03:54:45;;;;;;;11.35;6.10;;;4.90;99.90;;;;;;4933537;29;20090;-85
2023/03/29 03:57:11;;;;;;;11.82;5.80;;;5.00;99.90;;;;;;4934353;29;20487;-85
2023/03/29 03:59:37;;;;;;;10.18;5.13;;;4.90;99.90;;;;;;4934352;29;20048;-85
2023/03/29 04:02:04;;;;;;;12.45;6.45;;;5.10;99.90;;;;;;4934012;29;20039;-85
2023/03/29 04:04:30;;;;;;;13.82;5.82;;;5.30;99.90;;;;;;4919272;29;20491;-85
2023/03/29 04:07:01;;;;;;;13.55;6.22;;;4.90;99.90;;;;;;4933349;29;20190;-84
2023/03/29 04:09:30;;;;;;;14.77;7.13;;;5.00;99.90;;;;;;4933563;29;20051;-85
2023/03/29 04:11:56;;;;;;;13.80;6.55;;;5.00;99.90;;;;;;4918382;29;20057;-85
2023/03/29 04:14:22;;;;;;;11.93;6.75;;;5.30;99.90;;;;;;4934195;29;20050;-84
2023/03/29 04:16:48;;;;;;;14.57;6.03;;;5.10;99.90;;;;;;4916978;29;20288;-84
2023/03/29 04:19:15;;;;;;;12.35;7.00;;;5.20;99.90;;;;;;4933719;29;20078;-84
2023/03/29 04:21:41;;;;;;;13.55;6.25;;;5.30;99.90;;;;;;4932699;29;20055;-85
2023/03/29 04:24:07;;;;;;;14.50;7.10;;;5.00;99.90;;;;;;4950571;28;20567;-85
2023/03/29 04:26:33;;;;;;;15.70;6.68;;;5.20;99.90;;;;;;4949494;28;20053;-85
2023/03/29 04:29:05;;;;;;;12.43;6.60;;;5.00;99.90;;;;;;4956908;28;20102;-84
2023/03/29 04:31:31;;;;;;;9.70;6.38;;;5.00;99.90;;;;;;4972274;28;20046;-87
2023/03/29 04:33:58;;;;;;;13.32;6.57;;;5.00;99.90;;;;;;4972069;28;20042;-85
2023/03/29 04:36:31;;;;;;;10.90;6.03;;;5.00;99.90;;;;;;4954791;28;20553;-86
2023/03/29 04:39:00;;;;;;;10.50;6.50;;;5.00;99.90;;;;;;4955830;28;20049;-83
2023/03/29 04:41:31;;;;;;;11.75;6.53;;;5.10;99.90;;;;;;4955665;28;20398;-83
2023/03/29 04:43:57;;;;;;;14.80;6.35;;;5.10;99.90;;;;;;4971792;28;20042;-83
2023/03/29 04:46:25;;;;;;;13.45;7.07;;;5.10;99.90;;;;;;4955471;28;20386;-85
2023/03/29 04:48:51;;;;;;;14.70;6.78;;;5.10;99.90;;;;;;4956068;28;20046;-84
2023/03/29 04:51:17;;;;;;;10.95;6.75;;;5.10;99.90;;;;;;4970105;28;20509;-85
2023/03/29 04:53:43;;;;;;;14.63;7.40;;;5.10;99.90;;;;;;4971465;28;20050;-84
2023/03/29 04:56:08;;;;;;;12.70;7.22;;;5.10;99.90;;;;;;4955379;28;20050;-85
2023/03/29 04:58:34;;;;;;;15.20;7.07;;;5.10;99.90;;;;;;4970291;28;20061;-85
2023/03/29 05:01:00;;;;;;;13.68;7.40;;;5.10;99.90;;;;;;4972018;28;20105;-85
2023/03/29 05:03:26;;;;;;;16.63;7.00;;;5.40;99.90;;;;;;4950993;28;20038;-85
2023/03/29 05:05:52;;;;;;;14.70;8.10;;;5.30;99.90;;;;;;4934697;28;20053;-84
2023/03/29 05:08:18;;;;;;;14.13;7.72;;;5.10;99.90;;;;;;4952508;28;20399;-85
2023/03/29 05:10:44;;;;;;;12.60;8.15;;;5.20;99.90;;;;;;4951458;28;20059;-86
2023/03/29 05:13:16;;;;;;;16.60;7.97;;;5.20;99.90;;;;;;4951846;28;20054;-85
2023/03/29 05:15:42;;;;;;;16.75;7.43;;;5.20;99.90;;;;;;4936132;28;20056;-85
2023/03/29 05:18:08;;;;;;;10.70;7.78;;;5.20;99.90;;;;;;4936424;28;20130;-85
2023/03/29 05:20:44;;;;;;;14.23;7.78;;;5.20;99.90;;;;;;4951032;28;20042;-84
2023/03/29 05:23:20;;;;;;;12.18;7.63;;;5.60;99.90;;;;;;4952818;28;20054;-84
2023/03/29 05:25:48;;;;;;;13.80;7.20;;;5.20;99.90;;;;;;4935935;28;20057;-85
2023/03/29 05:28:16;;;;;;;17.13;8.50;;;5.30;99.90;;;;;;4933220;28;20051;-85
2023/03/29 05:30:41;;;;;;;14.65;7.90;;;5.30;99.90;;;;;;4916839;29;20047;-87
2023/03/29 05:33:17;;;;;;;16.08;8.05;;;5.30;99.90;;;;;;4928803;28;20041;-85
2023/03/29 05:35:42;;;;;;;14.38;8.00;;;5.30;99.90;;;;;;4934968;28;20042;-85
2023/03/29 05:38:08;;;;;;;15.57;7.95;;;5.30;99.90;;;;;;4935901;28;20054;-85
2023/03/29 05:40:34;;;;;;;19.00;8.38;;;5.30;99.90;;;;;;4934555;28;20046;-86
2023/03/29 05:43:01;;;;;;;11.52;7.72;;;5.30;99.90;;;;;;4952269;28;20058;-85
2023/03/29 05:45:28;;;;;;;12.63;8.02;;;5.30;99.90;;;;;;4935365;28;20105;-84
2023/03/29 05:47:55;;;;;;;13.10;7.20;;;5.40;99.90;;;;;;4935330;28;20221;-84
2023/03/29 05:50:21;;;;;;;11.70;7.97;;;5.40;99.90;;;;;;4934736;28;20260;-85
2023/03/29 05:52:52;;;;;;;15.63;8.90;;;4.70;99.90;;;;;;4935812;28;20129;-85
2023/03/29 05:55:18;;;;;;;15.30;8.27;;;5.40;99.90;;;;;;4950606;28;20047;-85
2023/03/29 05:57:44;;;;;;;12.25;7.88;;;5.80;99.90;;;;;;4951931;28;20050;-85
2023/03/29 06:00:22;;;;;;;14.32;8.32;;;5.60;99.90;;;;;;4935644;28;20047;-84
2023/03/29 06:02:49;;;;;;;13.68;8.38;;;5.50;99.90;;;;;;4951134;28;20439;-84
2023/03/29 06:05:15;;;;;;;17.85;8.73;;;5.50;99.90;;;;;;4934305;28;20042;-84
2023/03/29 06:07:41;;;;;;;13.95;8.27;;;5.50;99.90;;;;;;4950995;28;20069;-83
2023/03/29 06:10:09;;;;;;;16.27;9.05;;;5.50;99.90;;;;;;4934470;28;20055;-83
2023/03/29 06:12:35;;;;;;;17.67;9.18;;;5.50;99.90;;;;;;4935687;28;20150;-84
2023/03/29 06:15:03;;;;;;;14.65;9.38;;;6.00;99.90;;;;;;4950916;28;20121;-84
2023/03/29 06:17:30;;;;;;;14.77;8.82;;;5.50;99.90;;;;;;4951265;28;20055;-83
2023/03/29 06:19:56;;;;;;;15.85;9.40;;;5.50;99.90;;;;;;4950837;28;20061;-84
2023/03/29 06:22:22;;;;;;;15.32;9.43;;;5.60;99.90;;;;;;4933661;28;20035;-84
2023/03/29 06:24:48;;;;;;;14.38;8.43;;;5.50;99.90;;;;;;4935290;28;20130;-84
2023/03/29 06:27:14;;;;;;;13.52;9.13;;;5.60;99.90;;;;;;4924794;29;20047;-84
2023/03/29 06:29:40;;;;;;;14.27;9.07;;;5.70;99.90;;;;;;4931184;29;20062;-84
2023/03/29 06:32:05;;;;;;;17.10;9.57;;;5.70;99.90;;;;;;4916276;29;20202;-84
2023/03/29 06:34:31;;;;;;;15.30;9.07;;;5.70;99.90;;;;;;4965265;28;20487;-85
2023/03/29 06:36:57;;;;;;;15.10;9.10;;;6.10;99.90;;;;;;4933613;28;20503;-83
2023/03/29 06:39:24;;;;;;;17.02;9.95;;;5.70;99.90;;;;;;4951175;28;20478;-83
2023/03/29 06:41:50;;;;;;;18.70;9.73;;;5.80;99.90;;;;;;4935162;28;20082;-84
2023/03/29 06:44:16;;;;;;;19.33;9.57;;;5.80;99.90;;;;;;4938065;28;20081;-83
2023/03/29 06:46:42;;;;;;;17.98;10.20;;;5.90;99.90;;;;;;4953672;28;20047;-84
2023/03/29 06:49:08;;;;;;;21.60;10.43;;;5.90;99.90;;;;;;4954328;28;20050;-84
2023/03/29 06:51:33;;;;;;;18.30;10.23;;;5.90;99.90;;;;;;4936600;28;20101;-84
2023/03/29 06:53:59;;;;;;;16.60;9.60;;;6.00;99.90;;;;;;4954748;28;20459;-83
2023/03/29 06:56:25;;;;;;;16.70;9.73;;;6.00;99.90;;;;;;4938035;28;20046;-83
2023/03/29 06:58:51;;;;;;;20.50;9.77;;;6.00;99.90;;;;;;4937540;28;20114;-84
2023/03/29 07:01:16;;;;;;;14.38;9.63;;;6.10;99.90;;;;;;4954306;28;20133;-84
2023/03/29 07:03:44;;;;;;;15.95;10.35;;;6.10;99.90;;;;;;4938197;28;20490;-84
2023/03/29 07:06:19;;;;;;;15.07;10.60;;;6.10;99.90;;;;;;4952244;28;20061;-84
2023/03/29 07:08:49;;;;;;;18.48;9.40;;;6.10;99.90;;;;;;4937718;28;20054;-84
2023/03/29 07:11:17;;;;;;;19.40;9.98;;;6.20;99.90;;;;;;4938143;28;20054;-85
2023/03/29 07:13:45;;;;;;;14.57;9.38;;;6.20;99.90;;;;;;4968446;28;20057;-84
2023/03/29 07:16:13;;;;;;;16.75;10.13;;;6.20;99.90;;;;;;4955958;28;20513;-84
2023/03/29 07:18:41;;;;;;;19.38;9.75;;;6.30;99.90;;;;;;4955548;28;20121;-84
2023/03/29 07:21:09;;;;;;;16.92;10.48;;;6.40;99.90;;;;;;4971013;28;20085;-85
2023/03/29 07:23:35;;;;;;;14.00;9.60;;;6.50;99.90;;;;;;4971691;28;20406;-85
2023/03/29 07:26:06;;;;;;;16.92;9.30;;;6.60;99.90;;;;;;4970989;28;20046;-85
2023/03/29 07:28:32;;;;;;;15.70;9.65;;;6.60;99.90;;;;;;4917909;29;20053;-85
2023/03/29 07:31:05;;;;;;;16.00;9.68;;;6.70;99.90;;;;;;4918708;29;20047;-84
2023/03/29 07:33:33;;;;;;;22.35;10.02;;;6.80;99.90;;;;;;4918371;29;20051;-84
2023/03/29 07:35:59;;;;;;;14.55;9.13;;;6.90;99.90;;;;;;4933825;29;20102;-85
2023/03/29 07:38:25;;;;;;;13.02;8.70;;;7.00;99.90;;;;;;4943683;28;20496;-85
2023/03/29 07:40:53;;;;;;;16.15;9.10;;;7.00;99.90;;;;;;4949468;28;20502;-84
2023/03/29 07:43:28;;;;;;;16.50;8.68;;;7.00;99.90;;;;;;4953521;28;20046;-85
2023/03/29 07:45:54;;;;;;;14.65;8.38;;;7.00;99.90;;;;;;4969029;28;20068;-85
2023/03/29 07:48:21;;;;;;;14.82;8.70;;;7.00;99.90;;;;;;4955835;28;20462;-84
2023/03/29 07:50:46;;;;;;;15.55;8.95;;;6.90;99.90;;;;;;4955725;28;20046;-84
2023/03/29 07:53:16;;;;;;;16.25;9.00;;;6.90;99.90;;;;;;4972272;28;20050;-83
2023/03/29 07:55:45;;;;;;;15.13;8.70;;;6.90;99.90;;;;;;4955106;28;20057;-84
2023/03/29 07:58:12;;;;;;;14.02;8.55;;;6.90;99.90;;;;;;4972755;28;20458;-84
2023/03/29 08:00:42;;;;;;;12.40;7.75;;;6.90;99.90;;;;;;4956341;28;20085;-84
2023/03/29 08:03:11;;;;;;;15.32;8.10;;;6.90;99.90;;;;;;4956160;28;20483;-84
2023/03/29 08:05:38;;;;;;;16.63;9.65;;;7.00;99.90;;;;;;4955443;28;20085;-85
2023/03/29 08:08:05;;;;;;;17.35;8.90;;;7.00;99.90;;;;;;4971530;28;20050;-84
2023/03/29 08:10:33;;;;;;;15.98;8.65;;;7.00;99.90;;;;;;4956665;28;20398;-83
2023/03/29 08:12:59;;;;;;;15.13;8.32;;;7.10;99.90;;;;;;4956831;28;20046;-83
2023/03/29 08:15:26;;;;;;;18.25;8.95;;;7.20;99.90;;;;;;4955279;28;20054;-83
2023/03/29 08:17:52;;;;;;;12.05;8.40;;;7.30;99.90;;;;;;4972157;28;20046;-83
2023/03/29 08:20:21;;;;;;;17.13;8.60;;;7.40;99.90;;;;;;4954664;28;20402;-83
2023/03/29 08:22:50;;;;;;;12.57;8.55;;;7.50;99.90;;;;;;4955023;28;20454;-83
2023/03/29 08:25:16;;;;;;;15.38;8.20;;;7.50;99.90;;;;;;4955162;28;20050;-86
2023/03/29 08:27:42;;;;;;;13.70;8.55;;;7.60;99.90;;;;;;4938821;29;20043;-83
2023/03/29 08:30:13;;;;;;;15.57;8.35;;;7.60;99.90;;;;;;4932088;29;20058;-83
2023/03/29 08:32:39;;;;;;;13.27;7.30;;;7.60;99.90;;;;;;4933293;29;20086;-83
2023/03/29 08:35:08;;;;;;;13.10;7.30;;;7.70;99.90;;;;;;4932272;29;20047;-84
2023/03/29 08:37:37;;;;;;;14.85;8.50;;;7.70;99.90;;;;;;4933006;29;20062;-83
2023/03/29 08:40:03;;;;;;;17.55;8.32;;;7.70;99.90;;;;;;4932700;29;20047;-83
2023/03/29 08:42:51;;;;;;;13.18;7.68;;;7.80;99.90;;;;;;4933444;29;20380;-84
2023/03/29 08:45:23;;;;;;;12.75;7.57;;;7.90;99.90;;;;;;4931983;29;20040;-84
2023/03/29 08:48:07;;;;;;;14.73;8.20;;;8.10;99.90;;;;;;4917010;29;20051;-84
2023/03/29 08:50:39;;;;;;;13.57;7.88;;;7.50;99.90;;;;;;4915557;29;20153;-84
2023/03/29 08:53:11;;;;;;;12.13;7.60;;;8.20;99.90;;;;;;4933593;29;20054;-83
2023/03/29 08:55:41;;;;;;;16.02;7.75;;;8.20;99.90;;;;;;4933299;29;20083;-85
2023/03/29 08:58:14;;;;;;;17.23;7.43;;;8.30;99.90;;;;;;4932376;29;20395;-82
2023/03/29 09:00:46;;;;;;;17.60;8.02;;;8.30;99.90;;;;;;4932755;28;20390;-84
2023/03/29 09:03:27;;;;;;;14.60;8.73;;;8.40;99.90;;;;;;4932861;29;20046;-83
2023/03/29 09:06:01;;;;;;;14.18;6.90;;;8.50;99.90;;;;;;4930800;29;20134;-83
2023/03/29 09:08:27;;;;;;;21.42;8.02;;;8.60;99.90;;;;;;4932490;29;20054;-84
2023/03/29 09:11:11;;;;;;;13.93;7.60;;;8.70;99.90;;;;;;4932151;29;20138;-83
2023/03/29 09:13:45;;;;;;;15.13;8.10;;;8.80;99.90;;;;;;4933156;29;20069;-83
2023/03/29 09:16:35;;;;;;;15.43;7.68;;;8.90;99.90;;;;;;4916194;29;20058;-83
2023/03/29 09:19:07;;;;;;;22.63;8.02;;;9.00;99.90;;;;;;4916218;29;20047;-84
2023/03/29 09:21:39;;;;;;;15.93;8.20;;;9.00;99.90;;;;;;4915715;29;20475;-83
2023/03/29 09:24:30;;;;;;;13.43;8.38;;;9.10;99.90;;;;;;4916791;29;20484;-83
2023/03/29 09:27:04;;;;;;;16.35;9.07;;;9.20;99.90;;;;;;4915897;29;20391;-83
2023/03/29 09:29:40;;;;;;;12.57;7.60;;;9.30;99.90;;;;;;4933035;29;20062;-83
2023/03/29 09:32:19;;;;;;;15.15;8.90;;;9.40;99.90;;;;;;4933306;29;20051;-83
2023/03/29 09:34:59;;;;;;;21.65;9.00;;;9.50;99.90;;;;;;4916466;29;20506;-83
2023/03/29 09:37:34;;;;;;;18.77;8.65;;;9.50;99.90;;;;;;4917005;29;20082;-83
2023/03/29 09:40:03;;;;;;;16.13;7.95;;;9.50;99.90;;;;;;4915610;29;20467;-82
2023/03/29 09:42:30;;;;;;;18.02;8.73;;;9.60;99.90;;;;;;4917008;29;20134;-83
2023/03/29 09:45:02;;;;;;;15.75;8.35;;;9.50;99.90;;;;;;4916178;29;20207;-83
2023/03/29 09:47:34;;;;;;;20.40;9.38;;;9.60;99.90;;;;;;4915999;29;20539;-83
2023/03/29 09:50:09;;;;;;;22.30;10.90;;;9.60;99.90;;;;;;4931918;29;20113;-82
2023/03/29 09:52:35;;;;;;;22.42;11.27;;;9.70;99.90;;;;;;4932310;29;20137;-83
2023/03/29 09:55:02;;;;;;;20.48;10.25;;;9.80;99.90;;;;;;4931714;29;20130;-83
2023/03/29 09:57:29;;;;;;;20.25;9.82;;;9.80;99.90;;;;;;4916918;29;20047;-83
2023/03/29 09:59:56;;;;;;;21.52;9.93;;;9.90;99.90;;;;;;4916383;29;20085;-83
2023/03/29 10:02:22;;;;;;;16.13;9.73;;;9.90;99.90;;;;;;4915749;29;20047;-83
2023/03/29 10:05:02;;;;;;;25.33;9.70;;;9.90;99.90;;;;;;4915824;29;20043;-83
2023/03/29 10:07:43;;;;;;;19.55;10.13;;;9.90;99.90;;;;;;4931161;29;20058;-84
2023/03/29 10:10:18;;;;;;;20.52;10.05;;;9.90;99.90;;;;;;4912840;29;20070;-82
2023/03/29 10:12:49;;;;;;;21.23;10.00;;;9.90;99.90;;;;;;4913767;29;20048;-83
2023/03/29 10:15:17;;;;;;;20.60;10.48;;;10.00;99.90;;;;;;4912486;29;20134;-83
2023/03/29 10:17:44;;;;;;;23.02;10.48;;;10.00;99.90;;;;;;4915197;29;20567;-83
2023/03/29 10:20:17;;;;;;;22.20;11.07;;;10.00;99.90;;;;;;4916148;29;20050;-83
2023/03/29 10:22:53;;;;;;;20.20;10.18;;;10.00;99.90;;;;;;4916221;29;20539;-83
2023/03/29 10:25:24;;;;;;;18.25;9.95;;;10.00;99.90;;;;;;4916890;29;20162;-84
2023/03/29 10:27:50;;;;;;;18.00;9.40;;;10.10;99.90;;;;;;4916708;29;20055;-84
2023/03/29 10:30:21;;;;;;;16.05;9.75;;;10.10;99.90;;;;;;4900740;29;20036;-83
2023/03/29 10:32:56;;;;;;;17.30;9.15;;;10.20;99.90;;;;;;4916713;29;20052;-84
2023/03/29 10:35:36;;;;;;;18.02;9.35;;;10.20;99.90;;;;;;4915316;29;20055;-83
2023/03/29 10:38:06;;;;;;;17.75;9.20;;;10.20;99.90;;;;;;4916432;29;20047;-84
2023/03/29 10:40:33;;;;;;;18.58;10.55;;;10.20;99.90;;;;;;4916286;29;20051;-84
2023/03/29 10:43:11;;;;;;;17.38;10.73;;;10.20;99.90;;;;;;4915857;29;20519;-83
2023/03/29 10:45:38;;;;;;;19.48;10.02;;;10.20;99.90;;;;;;4900661;29;20484;-83
2023/03/29 10:48:06;;;;;;;18.85;10.20;;;10.30;99.90;;;;;;4916088;29;20055;-83
2023/03/29 10:50:36;;;;;;;21.38;11.27;;;10.50;99.90;;;;;;4914915;29;20105;-83
2023/03/29 10:53:09;;;;;;;18.10;10.50;;;10.50;99.90;;;;;;4916395;29;20039;-83
2023/03/29 10:55:44;;;;;;;21.10;11.18;;;10.60;99.90;;;;;;4929849;28;20121;-83
2023/03/29 10:58:11;;;;;;;19.58;10.98;;;10.80;99.90;;;;;;4917328;29;20098;-84
2023/03/29 11:00:48;;;;;;;17.85;10.45;;;10.80;99.90;;;;;;4936870;28;20039;-83
2023/03/29 11:03:43;;;;;;;19.80;11.32;;;10.90;99.90;;;;;;4917647;28;20079;-84
2023/03/29 11:06:26;;;;;;;19.05;10.50;;;11.10;99.90;;;;;;4921335;29;20488;-83
2023/03/29 11:08:58;;;;;;;19.55;10.82;;;11.10;99.90;;;;;;4926757;28;20065;-84
2023/03/29 11:11:39;;;;;;;22.50;11.32;;;11.30;99.90;;;;;;4942902;28;20482;-83
2023/03/29 11:14:10;;;;;;;19.20;11.00;;;11.40;99.90;;;;;;4933051;28;20482;-84
2023/03/29 11:16:54;;;;;;;22.25;13.02;;;11.60;99.90;;;;;;4934813;28;20038;-83
2023/03/29 11:19:52;;;;;;;16.42;11.13;;;11.70;99.90;;;;;;4949058;28;20398;-84
2023/03/29 11:22:38;;;;;;;18.90;11.35;;;11.90;99.90;;;;;;4948201;28;20800;-84
2023/03/29 11:25:10;;;;;;;20.35;10.23;;;12.10;99.90;;;;;;4948401;28;20101;-84
2023/03/29 11:27:48;;;;;;;17.42;10.25;;;12.30;99.90;;;;;;4934639;28;20372;-83
2023/03/29 11:30:34;;;;;;;18.90;9.70;;;12.40;99.90;;;;;;4934139;28;20051;-84
2023/03/29 11:33:09;;;;;;;14.57;10.05;;;12.40;99.90;;;;;;4937116;28;20058;-83
2023/03/29 11:35:37;;;;;;;16.58;10.23;;;12.50;99.90;;;;;;4937005;28;20054;-84
2023/03/29 11:38:04;;;;;;;17.42;10.20;;;12.50;99.90;;;;;;4953934;28;20061;-84
2023/03/29 11:40:54;;;;;;;22.23;11.68;;;12.60;99.90;;;;;;4955622;28;20485;-84
2023/03/29 11:43:34;;;;;;;21.23;10.65;;;12.70;99.90;;;;;;4971630;28;20052;-85
2023/03/29 11:46:13;;;;;;;16.75;9.75;;;12.70;99.90;;;;;;4972256;28;20053;-93
2023/03/29 11:48:46;;;;;;;16.17;10.15;;;12.70;99.90;;;;;;4958096;28;20054;-86
2023/03/29 11:51:22;;;;;;;22.92;10.68;;;12.70;99.90;;;;;;4955842;28;20042;-85
2023/03/29 11:53:55;;;;;;;16.33;10.27;;;12.70;99.90;;;;;;4971590;28;20402;-85
2023/03/29 11:56:32;;;;;;;14.43;10.32;;;12.70;99.90;;;;;;4956239;28;20085;-85
2023/03/29 11:59:06;;;;;;;21.48;10.57;;;12.70;99.90;;;;;;4957325;28;20100;-86
2023/03/29 12:01:38;;;;;;;18.13;10.75;;;12.80;99.90;;;;;;4955794;28;20512;-85
2023/03/29 12:04:13;;;;;;;15.32;10.20;;;12.90;99.90;;;;;;4956622;28;20046;-86
2023/03/29 12:06:51;;;;;;;18.27;9.82;;;12.90;99.90;;;;;;4972143;28;20073;-84
2023/03/29 12:09:27;;;;;;;15.70;10.10;;;13.00;99.90;;;;;;4956315;28;20930;-85
2023/03/29 12:12:01;;;;;;;16.52;10.25;;;13.00;99.90;;;;;;4956632;28;20141;-85
2023/03/29 12:14:38;;;;;;;17.77;10.40;;;13.00;99.90;;;;;;4956430;28;20561;-85
2023/03/29 12:17:11;;;;;;;17.85;9.85;;;13.00;99.90;;;;;;4972472;28;20050;-85
2023/03/29 12:19:56;;;;;;;17.77;9.77;;;13.10;99.90;;;;;;4956956;28;20482;-90
2023/03/29 12:22:21;;;;;;;14.52;9.35;;;13.20;99.90;;;;;;4971584;28;20089;-85
2023/03/29 12:24:50;;;;;;;12.77;8.85;;;13.20;99.90;;;;;;4956844;28;20089;-85
2023/03/29 12:27:30;;;;;;;13.55;8.52;;;13.20;99.90;;;;;;4943078;28;20038;-85
2023/03/29 12:30:22;;;;;;;14.68;8.70;;;13.20;99.90;;;;;;4936511;28;20109;-88
2023/03/29 12:32:57;;;;;;;13.02;8.32;;;13.30;99.90;;;;;;4937600;28;20042;-85
2023/03/29 12:35:25;;;;;;;13.82;8.80;;;13.50;99.90;;;;;;4951870;28;20562;-87
2023/03/29 12:37:58;;;;;;;13.50;7.88;;;13.50;99.90;;;;;;4953451;28;20109;-87
2023/03/29 12:40:26;;;;;;;11.82;8.05;;;13.50;99.90;;;;;;4936299;28;20055;-82
2023/03/29 12:42:58;;;;;;;12.10;8.25;;;13.60;99.90;;;;;;4935605;28;20089;-82
2023/03/29 12:45:30;;;;;;;11.52;8.15;;;13.70;99.90;;;;;;4936326;28;20459;-82
2023/03/29 12:47:57;;;;;;;12.48;8.20;;;13.70;99.90;;;;;;4952495;28;20476;-83
2023/03/29 12:50:27;;;;;;;11.80;7.47;;;13.70;99.90;;;;;;4950594;28;20063;-82
2023/03/29 12:53:14;;;;;;;13.00;7.70;;;13.70;99.90;;;;;;4936992;28;20101;-82
2023/03/29 12:55:41;;;;;;;23.02;8.30;;;13.70;99.90;;;;;;4936224;28;20062;-82
2023/03/29 12:58:23;;;;;;;12.90;6.88;;;13.70;99.90;;;;;;4935265;28;20134;-82
2023/03/29 13:01:04;;;;;;;11.37;7.17;;;13.80;99.90;;;;;;4935678;28;20046;-84
2023/03/29 13:03:42;;;;;;;12.98;7.15;;;13.80;99.90;;;;;;4935230;28;20294;-84